Time;durP1;ratioP1;P1;durP2;ratioP2;P2;SDS_P1;SDS_P2;PMS_P1;PMS_P2;Temp;Humidity;BMP_temperature;BMP_pressure;BME280_temperature;BME280_humidity;BME280_pressure;Samples;Min_cycle;Max_cycle;Signal;HPM_P1;HPM_P2
2024/01/28 00:01:56;;;;;;;5.07;1.37;;;;;;;7.20;78.94;101035.22;5068083;28;20068;-77
2024/01/28 00:04:22;;;;;;;6.53;1.40;;;;;;;7.25;79.61;101028.34;5068909;28;20035;-77
2024/01/28 00:06:47;;;;;;;4.90;1.30;;;;;;;7.30;79.31;101031.94;5068032;28;20036;-76
2024/01/28 00:09:12;;;;;;;5.23;1.37;;;;;;;7.35;79.16;101025.06;5067964;28;20484;-78
2024/01/28 00:11:39;;;;;;;5.83;1.67;;;;;;;7.42;79.29;101020.84;5069009;28;20025;-75
2024/01/28 00:14:05;;;;;;;5.32;1.48;;;;;;;7.51;79.29;101030.66;5067884;28;20056;-77
2024/01/28 00:16:30;;;;;;;6.20;1.73;;;;;;;7.62;78.84;101023.91;5067462;28;20059;-76
2024/01/28 00:18:58;;;;;;;4.20;1.30;;;;;;;7.70;78.63;101022.31;5068855;28;20024;-76
2024/01/28 00:21:26;;;;;;;6.03;1.50;;;;;;;7.76;78.29;101011.94;5068328;28;20024;-78
2024/01/28 00:23:52;;;;;;;4.75;1.30;;;;;;;7.82;78.68;101010.28;5069379;28;20505;-78
2024/01/28 00:26:17;;;;;;;4.10;0.70;;;;;;;7.90;78.41;101006.09;5077097;28;20123;-76
2024/01/28 00:28:43;;;;;;;5.60;1.20;;;;;;;7.95;78.46;101004.44;5068772;28;20419;-76
2024/01/28 00:31:10;;;;;;;3.92;1.10;;;;;;;8.01;78.01;101001.91;5067851;28;20048;-76
2024/01/28 00:33:35;;;;;;;2.97;0.63;;;;;;;8.02;78.01;101002.81;5068764;28;20024;-76
2024/01/28 00:36:00;;;;;;;3.50;0.70;;;;;;;8.00;78.18;100997.53;5067782;28;20031;-77
2024/01/28 00:38:31;;;;;;;6.20;0.90;;;;;;;8.03;77.65;101005.44;5070497;28;20477;-77
2024/01/28 00:40:56;;;;;;;5.28;0.90;;;;;;;8.05;77.59;101002.88;5071465;28;20393;-77
2024/01/28 00:43:22;;;;;;;5.93;0.93;;;;;;;8.07;77.79;100987.13;5072337;28;20055;-77
2024/01/28 00:45:47;;;;;;;3.50;0.80;;;;;;;8.07;77.62;100987.13;5071027;28;20051;-77
2024/01/28 00:48:13;;;;;;;7.20;0.70;;;;;;;8.10;77.48;100981.97;5087189;28;20050;-77
2024/01/28 00:50:38;;;;;;;4.03;0.77;;;;;;;8.10;77.48;100989.84;5088988;28;20047;-77
2024/01/28 00:53:04;;;;;;;3.35;0.80;;;;;;;8.14;77.51;100991.66;5072128;28;20104;-76
2024/01/28 00:55:31;;;;;;;5.33;0.60;;;;;;;8.29;77.27;100989.28;5070683;28;20078;-77
2024/01/28 00:57:57;;;;;;;4.60;0.70;;;;;;;8.38;77.16;100990.31;5067390;28;20056;-76
2024/01/28 01:00:23;;;;;;;3.67;0.63;;;;;;;8.50;76.62;100984.41;5071352;28;20063;-77
2024/01/28 01:02:53;;;;;;;4.07;0.70;;;;;;;8.54;76.39;100981.84;5071928;28;20492;-77
2024/01/28 01:05:18;;;;;;;4.20;0.67;;;;;;;8.60;76.35;100981.97;5063701;28;20280;-76
2024/01/28 01:07:43;;;;;;;3.58;0.65;;;;;;;8.67;76.15;100982.91;5051940;28;20508;-77
2024/01/28 01:10:09;;;;;;;4.20;0.93;;;;;;;8.71;76.18;100983.84;5051857;28;20053;-78
2024/01/28 01:12:34;;;;;;;6.37;0.80;;;;;;;8.73;75.08;100979.50;5051456;28;20398;-76
2024/01/28 01:15:00;;;;;;;3.70;0.65;;;;;;;8.81;75.44;100974.38;5051461;28;20100;-76
2024/01/28 01:17:25;;;;;;;3.27;0.77;;;;;;;8.86;75.52;100978.84;5068871;28;20028;-76
2024/01/28 01:19:51;;;;;;;3.77;0.60;;;;;;;8.89;75.62;100971.00;5071640;28;20044;-76
2024/01/28 01:22:19;;;;;;;2.90;0.50;;;;;;;8.90;75.32;100970.13;5069429;28;20055;-78
2024/01/28 01:24:44;;;;;;;4.50;0.90;;;;;;;8.90;75.53;100975.41;5077695;28;20028;-76
2024/01/28 01:27:09;;;;;;;4.67;0.70;;;;;;;8.90;75.34;100967.50;5071293;28;20108;-77
2024/01/28 01:29:35;;;;;;;3.57;0.70;;;;;;;8.92;75.41;100972.78;5071534;28;20439;-77
2024/01/28 01:32:00;;;;;;;4.03;0.70;;;;;;;8.94;74.79;100972.81;5053235;28;20488;-77
2024/01/28 01:34:27;;;;;;;3.93;0.77;;;;;;;8.97;75.05;100972.84;5071138;28;20108;-76
2024/01/28 01:36:52;;;;;;;2.88;0.52;;;;;;;8.98;74.99;100977.22;5071137;28;20029;-76
2024/01/28 01:39:18;;;;;;;4.17;1.00;;;;;;;8.99;74.90;100979.91;5070357;28;20033;-76
2024/01/28 01:41:46;;;;;;;3.47;0.60;;;;;;;8.99;74.95;100984.25;5071038;28;20031;-77
2024/01/28 01:44:12;;;;;;;3.63;0.82;;;;;;;9.01;75.01;100977.28;5071109;28;20196;-77
2024/01/28 01:46:39;;;;;;;5.23;1.20;;;;;;;9.03;74.86;100986.97;5073156;28;20036;-77
2024/01/28 01:49:05;;;;;;;5.35;0.70;;;;;;;9.04;75.02;100982.56;5090856;28;20067;-77
2024/01/28 01:51:31;;;;;;;3.38;0.75;;;;;;;9.09;73.44;100983.53;5091155;28;20630;-78
2024/01/28 01:53:57;;;;;;;4.55;0.70;;;;;;;9.15;74.13;100985.34;5058672;28;20032;-77
2024/01/28 01:56:23;;;;;;;6.73;0.70;;;;;;;9.19;73.38;100977.53;5061839;28;20044;-76
2024/01/28 01:58:49;;;;;;;4.43;0.73;;;;;;;9.23;73.83;100980.19;5050877;28;20051;-75
2024/01/28 02:01:16;;;;;;;4.40;0.80;;;;;;;9.23;73.49;100982.81;5050523;28;20640;-77
2024/01/28 02:03:42;;;;;;;3.20;0.60;;;;;;;9.25;73.66;100983.72;5051019;28;20044;-77
2024/01/28 02:06:09;;;;;;;3.67;0.80;;;;;;;9.29;73.30;100975.03;5050724;28;20323;-79
2024/01/28 02:08:35;;;;;;;3.25;0.70;;;;;;;9.32;73.16;100969.81;5050734;28;20112;-77
2024/01/28 02:11:02;;;;;;;4.77;0.80;;;;;;;9.34;72.98;100971.59;5050610;28;20112;-76
2024/01/28 02:13:28;;;;;;;3.85;0.82;;;;;;;9.37;72.84;100975.09;5060663;28;20647;-77
2024/01/28 02:15:53;;;;;;;4.77;0.67;;;;;;;9.37;72.09;100976.00;5070369;28;20110;-78
2024/01/28 02:18:18;;;;;;;9.50;0.90;;;;;;;9.42;72.95;100978.69;5069492;28;20506;-77
2024/01/28 02:20:44;;;;;;;5.43;0.80;;;;;;;9.44;72.64;100969.09;5070287;28;20341;-77
2024/01/28 02:23:10;;;;;;;3.37;0.60;;;;;;;9.46;72.88;100970.84;5071706;28;20036;-77
2024/01/28 02:25:35;;;;;;;3.42;0.73;;;;;;;9.46;72.77;100965.59;5061415;28;20024;-77
2024/01/28 02:28:01;;;;;;;5.97;0.90;;;;;;;9.45;72.40;100969.09;5069482;28;20041;-78
2024/01/28 02:30:26;;;;;;;3.60;0.73;;;;;;;9.49;71.99;100962.13;5070203;28;20499;-77
2024/01/28 02:32:51;;;;;;;5.30;0.80;;;;;;;9.53;72.35;100963.06;5069169;28;20389;-77
2024/01/28 02:35:18;;;;;;;3.75;0.90;;;;;;;9.55;72.36;100963.97;5070171;28;20025;-77
2024/01/28 02:37:44;;;;;;;3.90;0.82;;;;;;;9.54;72.01;100959.56;5069125;28;20412;-76
2024/01/28 02:40:10;;;;;;;3.23;0.67;;;;;;;9.54;71.35;100967.44;5068988;28;20020;-77
2024/01/28 02:42:35;;;;;;;5.22;1.15;;;;;;;9.61;71.06;100949.09;5070229;28;20093;-77
2024/01/28 02:45:01;;;;;;;3.70;0.60;;;;;;;9.66;70.74;100959.69;5069165;28;20441;-77
2024/01/28 02:47:26;;;;;;;5.25;0.93;;;;;;;9.67;71.07;100950.94;5078851;28;20532;-77
2024/01/28 02:49:52;;;;;;;5.83;1.10;;;;;;;9.65;71.08;100947.41;5072404;28;20452;-77
2024/01/28 02:52:17;;;;;;;3.90;0.80;;;;;;;9.65;70.41;100950.03;5069873;28;20020;-76
2024/01/28 02:54:43;;;;;;;3.10;0.80;;;;;;;9.70;70.39;100948.31;5068871;28;20021;-77
2024/01/28 02:57:08;;;;;;;4.63;0.73;;;;;;;9.69;70.49;100951.81;5069807;28;20021;-78
2024/01/28 02:59:34;;;;;;;4.57;1.23;;;;;;;9.73;69.88;100943.09;5068636;28;20029;-76
2024/01/28 03:01:59;;;;;;;3.70;0.80;;;;;;;9.71;70.18;100951.84;5069008;28;20044;-77
2024/01/28 03:04:25;;;;;;;3.45;0.95;;;;;;;9.76;69.54;100944.88;5069238;28;20021;-76
2024/01/28 03:06:50;;;;;;;4.30;0.83;;;;;;;9.76;69.69;100945.75;5069872;28;20029;-77
2024/01/28 03:09:17;;;;;;;3.53;0.90;;;;;;;9.75;69.54;100932.59;5062555;28;20028;-77
2024/01/28 03:11:42;;;;;;;3.67;1.00;;;;;;;9.72;69.40;100941.34;5069645;28;20020;-77
2024/01/28 03:14:08;;;;;;;3.97;1.03;;;;;;;9.72;69.99;100943.09;5050644;28;20423;-75
2024/01/28 03:16:34;;;;;;;4.50;1.20;;;;;;;9.77;69.34;100941.38;5069363;28;20025;-77
2024/01/28 03:18:59;;;;;;;3.90;1.10;;;;;;;9.82;69.32;100942.31;5069858;28;20024;-77
2024/01/28 03:21:25;;;;;;;5.75;1.33;;;;;;;9.83;69.64;100940.56;5069367;28;20455;-77
2024/01/28 03:23:50;;;;;;;4.90;0.80;;;;;;;9.80;69.45;100937.91;5070574;28;20090;-77
2024/01/28 03:26:15;;;;;;;4.20;1.03;;;;;;;9.79;69.61;100936.16;5078459;28;20107;-79
2024/01/28 03:28:42;;;;;;;3.37;0.80;;;;;;;9.75;70.17;100933.47;5069656;28;20456;-77
2024/01/28 03:31:08;;;;;;;4.00;1.00;;;;;;;9.75;70.02;100936.09;5068614;28;20082;-76
2024/01/28 03:33:33;;;;;;;4.18;1.20;;;;;;;9.79;69.42;100933.53;5069442;28;20030;-76
2024/01/28 03:35:59;;;;;;;3.67;0.90;;;;;;;9.76;69.97;100922.06;5068297;28;20020;-77
2024/01/28 03:38:24;;;;;;;3.97;1.00;;;;;;;9.74;70.06;100934.34;5068161;28;20040;-77
2024/01/28 03:40:50;;;;;;;4.30;1.10;;;;;;;9.74;69.79;100920.31;5069163;28;20096;-77
2024/01/28 03:43:15;;;;;;;4.67;1.10;;;;;;;9.71;70.21;100923.78;5069514;28;20031;-76
2024/01/28 03:45:41;;;;;;;5.40;1.10;;;;;;;9.71;69.88;100920.28;5068545;28;20040;-77
2024/01/28 03:48:06;;;;;;;4.23;1.13;;;;;;;9.74;70.24;100933.47;5065360;28;20020;-77
2024/01/28 03:50:32;;;;;;;4.70;1.13;;;;;;;9.71;69.63;100915.91;5070536;28;20067;-77
2024/01/28 03:52:57;;;;;;;4.97;1.80;;;;;;;9.74;69.85;100918.56;5069273;28;20471;-76
2024/01/28 03:55:23;;;;;;;4.23;1.27;;;;;;;9.74;69.48;100922.94;5068580;28;20036;-78
2024/01/28 03:57:48;;;;;;;5.32;1.20;;;;;;;9.72;69.55;100922.06;5069247;28;20083;-77
2024/01/28 04:00:14;;;;;;;4.60;1.20;;;;;;;9.73;69.71;100922.06;5068099;28;20165;-77
2024/01/28 04:02:40;;;;;;;5.22;1.17;;;;;;;9.72;69.62;100919.44;5069201;28;20028;-77
2024/01/28 04:05:06;;;;;;;4.63;1.30;;;;;;;9.73;69.15;100914.16;5068539;28;20523;-78
2024/01/28 04:07:31;;;;;;;4.07;1.20;;;;;;;9.76;68.83;100922.06;5069282;28;20465;-75
2024/01/28 04:09:57;;;;;;;5.07;1.10;;;;;;;9.72;68.76;100914.16;5067427;28;20041;-77
2024/01/28 04:12:22;;;;;;;7.13;1.93;;;;;;;9.72;68.63;100909.78;5071027;28;20082;-76
2024/01/28 04:14:48;;;;;;;4.35;1.20;;;;;;;9.71;68.06;100907.16;5071633;28;20021;-78
2024/01/28 04:17:13;;;;;;;4.27;1.30;;;;;;;9.70;68.02;100906.25;5092954;28;20115;-77
2024/01/28 04:19:38;;;;;;;5.30;1.10;;;;;;;9.73;68.06;100901.00;5083325;28;20100;-79
2024/01/28 04:22:04;;;;;;;6.17;1.40;;;;;;;9.71;68.22;100897.50;5054688;28;20395;-77
2024/01/28 04:24:30;;;;;;;5.40;1.35;;;;;;;9.69;67.63;100901.84;5077538;28;20035;-77
2024/01/28 04:26:55;;;;;;;4.10;1.03;;;;;;;9.66;67.82;100900.97;5058207;28;20032;-77
2024/01/28 04:29:21;;;;;;;4.13;1.50;;;;;;;9.68;67.88;100900.09;5071899;28;20407;-77
2024/01/28 04:31:46;;;;;;;4.20;1.40;;;;;;;9.67;67.51;100911.47;5054619;28;20062;-77
2024/01/28 04:34:12;;;;;;;4.80;1.30;;;;;;;9.61;67.51;100911.44;5071626;28;20033;-77
2024/01/28 04:36:37;;;;;;;4.07;1.40;;;;;;;9.61;67.29;100899.13;5072235;28;20115;-77
2024/01/28 04:39:03;;;;;;;5.17;1.50;;;;;;;9.65;67.33;100902.69;5071473;28;20024;-77
2024/01/28 04:41:28;;;;;;;4.57;1.45;;;;;;;9.65;67.22;100897.44;5054367;28;20028;-78
2024/01/28 04:43:54;;;;;;;5.07;1.53;;;;;;;9.70;66.68;100895.72;5071598;28;20044;-75
2024/01/28 04:46:20;;;;;;;6.15;2.03;;;;;;;9.69;66.94;100895.72;5072476;28;20028;-76
2024/01/28 04:48:45;;;;;;;6.45;2.03;;;;;;;9.68;66.62;100900.09;5087660;28;20067;-77
2024/01/28 04:51:11;;;;;;;5.93;1.50;;;;;;;9.71;67.03;100897.50;5072263;28;20423;-77
2024/01/28 04:53:36;;;;;;;3.93;1.30;;;;;;;9.72;66.86;100891.34;5071480;28;20460;-76
2024/01/28 04:56:02;;;;;;;7.03;1.57;;;;;;;9.72;66.72;100899.25;5072185;28;20028;-76
2024/01/28 04:58:28;;;;;;;4.72;1.67;;;;;;;9.72;67.20;100899.25;5071278;28;20095;-75
2024/01/28 05:00:54;;;;;;;5.60;1.73;;;;;;;9.68;67.51;100889.56;5071679;28;20044;-78
2024/01/28 05:03:20;;;;;;;6.05;1.63;;;;;;;9.69;67.44;100891.34;5071879;28;20024;-77
2024/01/28 05:05:45;;;;;;;5.20;1.40;;;;;;;9.67;67.12;100895.69;5068511;28;21011;-79
2024/01/28 05:08:11;;;;;;;6.00;1.93;;;;;;;9.70;66.83;100897.50;5072013;28;20520;-76
2024/01/28 05:10:37;;;;;;;6.70;1.63;;;;;;;9.72;66.81;100883.47;5071943;28;20039;-77
2024/01/28 05:13:03;;;;;;;5.75;1.60;;;;;;;9.73;67.25;100897.50;5071250;28;20037;-75
2024/01/28 05:15:28;;;;;;;4.47;1.40;;;;;;;9.73;66.82;100893.13;5077544;28;20028;-77
2024/01/28 05:17:53;;;;;;;6.63;1.90;;;;;;;9.71;67.20;100891.38;5071612;28;20071;-77
2024/01/28 05:20:19;;;;;;;6.23;2.10;;;;;;;9.73;67.24;100898.38;5071673;28;20289;-77
2024/01/28 05:22:44;;;;;;;5.50;1.70;;;;;;;9.71;67.56;100891.38;5070369;28;20029;-78
2024/01/28 05:25:10;;;;;;;5.97;2.30;;;;;;;9.69;67.53;100883.44;5080247;28;20419;-75
2024/01/28 05:27:39;;;;;;;5.77;2.10;;;;;;;9.71;67.54;100894.00;5070865;28;20120;-77
2024/01/28 05:30:06;;;;;;;5.68;1.92;;;;;;;9.75;67.68;100896.66;5071510;28;20065;-74
2024/01/28 05:32:31;;;;;;;6.40;2.10;;;;;;;9.72;67.59;100893.13;5070234;28;20033;-75
2024/01/28 05:34:57;;;;;;;6.28;2.28;;;;;;;9.70;68.09;100889.59;5053366;28;20061;-75
2024/01/28 05:37:23;;;;;;;6.73;2.30;;;;;;;9.70;67.70;100894.84;5069960;28;20039;-75
2024/01/28 05:39:49;;;;;;;5.55;2.70;;;;;;;9.67;68.31;100892.22;5071297;28;20042;-76
2024/01/28 05:42:14;;;;;;;5.60;2.47;;;;;;;9.60;68.61;100893.88;5071291;28;20036;-76
2024/01/28 05:44:39;;;;;;;6.27;2.37;;;;;;;9.61;68.61;100901.78;5070277;28;20048;-77
2024/01/28 05:47:05;;;;;;;7.47;2.33;;;;;;;9.55;68.82;100900.84;5075911;28;20032;-77
2024/01/28 05:49:31;;;;;;;6.17;2.50;;;;;;;9.55;69.09;100896.47;5073318;28;20131;-77
2024/01/28 05:51:56;;;;;;;6.80;2.40;;;;;;;9.54;69.00;100899.97;5079764;28;20064;-76
2024/01/28 05:54:22;;;;;;;6.07;2.33;;;;;;;9.56;69.19;100903.47;5071048;28;20086;-76
2024/01/28 05:56:47;;;;;;;10.23;2.97;;;;;;;9.51;69.24;100909.53;5070059;28;20509;-77
2024/01/28 05:59:13;;;;;;;6.07;2.55;;;;;;;9.45;69.56;100916.50;5070724;28;20021;-78
2024/01/28 06:01:39;;;;;;;7.70;2.83;;;;;;;9.47;69.73;100914.78;5069752;28;20106;-76
2024/01/28 06:04:05;;;;;;;8.93;3.00;;;;;;;9.50;69.71;100911.31;5070851;28;20028;-76
2024/01/28 06:06:30;;;;;;;8.27;2.93;;;;;;;9.52;69.72;100899.06;5069385;28;20029;-77
2024/01/28 06:08:56;;;;;;;7.47;2.80;;;;;;;9.48;70.24;100911.28;5067984;28;20020;-76
2024/01/28 06:11:21;;;;;;;8.47;3.00;;;;;;;9.48;70.42;100908.66;5070755;28;20060;-77
2024/01/28 06:13:46;;;;;;;9.97;3.63;;;;;;;9.46;70.68;100915.63;5066854;28;20069;-77
2024/01/28 06:16:12;;;;;;;7.37;3.20;;;;;;;9.45;70.71;100906.00;5069160;28;20016;-76
2024/01/28 06:18:43;;;;;;;7.82;3.20;;;;;;;9.45;71.17;100905.13;5070374;28;20395;-77
2024/01/28 06:21:11;;;;;;;9.70;3.35;;;;;;;9.42;71.69;100907.72;5069313;28;20032;-77
2024/01/28 06:23:37;;;;;;;7.37;3.10;;;;;;;9.43;71.88;100912.97;5070014;28;20077;-76
2024/01/28 06:26:03;;;;;;;7.90;3.72;;;;;;;9.41;71.75;100909.47;5077651;28;20040;-77
2024/01/28 06:28:28;;;;;;;10.95;3.47;;;;;;;9.39;72.01;100913.81;5070419;28;20029;-78
2024/01/28 06:30:54;;;;;;;10.93;3.83;;;;;;;9.36;72.76;100912.88;5069400;28;20013;-77
2024/01/28 06:33:20;;;;;;;10.07;3.70;;;;;;;9.37;72.96;100918.19;5070091;28;20016;-76
2024/01/28 06:35:45;;;;;;;10.27;4.30;;;;;;;9.34;73.36;100924.28;5069250;28;20262;-78
2024/01/28 06:38:10;;;;;;;9.73;4.17;;;;;;;9.39;73.69;100915.56;5070155;28;20511;-76
2024/01/28 06:40:36;;;;;;;9.70;4.30;;;;;;;9.33;74.17;100919.88;5069945;28;20028;-76
2024/01/28 06:43:01;;;;;;;12.67;5.00;;;;;;;9.36;74.38;100921.66;5068874;28;20471;-77
2024/01/28 06:45:26;;;;;;;11.67;4.57;;;;;;;9.33;74.50;100911.13;5069972;28;20040;-78
2024/01/28 06:47:53;;;;;;;10.45;4.65;;;;;;;9.30;75.14;100924.25;5080841;28;20107;-78
2024/01/28 06:50:19;;;;;;;11.17;4.50;;;;;;;9.24;75.61;100911.91;5090423;28;20020;-76
2024/01/28 06:52:44;;;;;;;12.02;5.35;;;;;;;9.21;76.20;100916.22;5072190;28;20090;-77
2024/01/28 06:55:10;;;;;;;11.30;5.13;;;;;;;9.17;75.99;100915.31;5069907;28;20020;-78
2024/01/28 06:57:37;;;;;;;12.13;5.35;;;;;;;9.09;76.88;100907.34;5068924;28;20029;-77
2024/01/28 07:00:05;;;;;;;14.13;6.47;;;;;;;9.04;77.94;100916.88;5069592;28;20044;-76
2024/01/28 07:02:31;;;;;;;15.70;7.10;;;;;;;9.02;78.05;100910.72;5068184;28;20044;-77
2024/01/28 07:04:59;;;;;;;13.07;6.38;;;;;;;8.96;78.30;100910.66;5069178;28;20060;-77
2024/01/28 07:07:24;;;;;;;15.32;7.78;;;;;;;8.92;78.84;100906.25;5069901;28;20016;-76
2024/01/28 07:09:50;;;;;;;14.37;6.47;;;;;;;8.92;78.88;100909.72;5065370;28;20087;-77
2024/01/28 07:12:15;;;;;;;16.97;7.00;;;;;;;8.84;79.30;100903.50;5069465;28;20064;-79
2024/01/28 07:14:41;;;;;;;15.40;6.47;;;;;;;8.87;79.48;100907.06;5069614;28;20028;-76
2024/01/28 07:17:07;;;;;;;16.33;7.87;;;;;;;8.84;79.65;100906.13;5061373;28;20308;-76
2024/01/28 07:19:33;;;;;;;15.18;7.53;;;;;;;8.84;79.75;100911.38;5069380;28;20112;-77
2024/01/28 07:21:58;;;;;;;14.77;7.10;;;;;;;8.83;79.93;100913.16;5068929;28;20107;-78
2024/01/28 07:24:24;;;;;;;13.70;7.77;;;;;;;8.85;80.62;100918.41;5074219;28;20111;-78
2024/01/28 07:26:49;;;;;;;16.10;7.20;;;;;;;8.90;80.18;100906.19;5072751;28;20036;-77
2024/01/28 07:29:14;;;;;;;16.57;7.30;;;;;;;8.88;80.82;100902.69;5069621;28;20055;-75
2024/01/28 07:31:40;;;;;;;17.93;7.03;;;;;;;8.94;80.58;100915.91;5069580;28;20133;-75
2024/01/28 07:34:05;;;;;;;15.23;6.78;;;;;;;8.88;81.40;100924.59;5068757;28;20036;-75
2024/01/28 07:36:31;;;;;;;13.73;6.57;;;;;;;8.99;80.85;100921.22;5068377;28;20083;-77
2024/01/28 07:38:57;;;;;;;16.57;6.80;;;;;;;8.99;81.14;100910.69;5050323;28;20033;-74
2024/01/28 07:41:23;;;;;;;13.45;7.00;;;;;;;9.03;81.15;100915.13;5069487;28;20071;-75
2024/01/28 07:43:50;;;;;;;12.18;6.70;;;;;;;9.06;81.61;100930.94;5050708;28;20044;-74
2024/01/28 07:46:15;;;;;;;13.40;6.70;;;;;;;9.11;81.33;100915.22;5069467;28;20518;-77
2024/01/28 07:48:42;;;;;;;10.73;6.10;;;;;;;9.12;81.81;100896.88;5085232;28;20028;-74
2024/01/28 07:51:08;;;;;;;12.33;6.00;;;;;;;9.19;81.37;100909.22;5073418;28;20036;-76
2024/01/28 07:53:34;;;;;;;12.50;6.30;;;;;;;9.18;81.59;100917.09;5072647;28;20032;-73
2024/01/28 07:56:02;;;;;;;12.98;6.07;;;;;;;9.28;81.81;100903.19;5073339;28;20077;-74
2024/01/28 07:58:28;;;;;;;13.93;7.27;;;;;;;9.34;81.58;100915.53;5072057;28;20024;-75
2024/01/28 08:00:54;;;;;;;10.68;5.63;;;;;;;9.38;81.09;100914.69;5072702;28;20048;-74
2024/01/28 08:03:19;;;;;;;15.43;5.43;;;;;;;9.38;81.33;100914.69;5072278;28;20487;-74
2024/01/28 08:05:44;;;;;;;13.53;6.00;;;;;;;9.42;81.21;100919.09;5071869;28;20031;-74
2024/01/28 08:08:10;;;;;;;14.63;5.87;;;;;;;9.48;81.23;100926.19;5043632;28;20275;-75
2024/01/28 08:10:35;;;;;;;12.53;6.40;;;;;;;9.51;81.04;100925.31;5071736;28;20028;-75
2024/01/28 08:13:01;;;;;;;13.60;6.80;;;;;;;9.60;81.07;100915.78;5075744;28;20028;-76
2024/01/28 08:15:26;;;;;;;11.17;5.90;;;;;;;9.59;80.90;100929.81;5064939;28;20020;-75
2024/01/28 08:17:51;;;;;;;10.27;5.93;;;;;;;9.67;80.90;100936.91;5049653;28;20333;-76
2024/01/28 08:20:17;;;;;;;11.73;5.40;;;;;;;9.68;80.46;100939.53;5069552;28;20025;-74
2024/01/28 08:22:43;;;;;;;12.23;5.70;;;;;;;9.69;80.48;100930.78;5058937;28;20113;-79
2024/01/28 08:25:09;;;;;;;14.50;6.72;;;;;;;9.79;80.31;100934.38;5081987;28;20024;-75
2024/01/28 08:27:35;;;;;;;10.20;5.15;;;;;;;9.74;80.52;100936.97;5060605;28;20497;-75
2024/01/28 08:30:00;;;;;;;12.87;5.33;;;;;;;9.86;80.05;100944.09;5070473;28;20032;-77
2024/01/28 08:32:25;;;;;;;12.30;7.00;;;;;;;9.89;80.20;100940.63;5066502;28;20055;-74
2024/01/28 08:34:51;;;;;;;10.93;5.90;;;;;;;9.87;80.11;100935.34;5068952;28;20052;-75
2024/01/28 08:37:17;;;;;;;11.00;6.13;;;;;;;9.92;80.14;100945.91;5067921;28;20035;-75
2024/01/28 08:39:43;;;;;;;12.48;5.85;;;;;;;9.96;79.95;100938.94;5068563;28;20024;-76
2024/01/28 08:42:08;;;;;;;14.23;5.60;;;;;;;10.00;80.15;100936.34;5072462;28;20040;-75
2024/01/28 08:44:33;;;;;;;14.10;5.80;;;;;;;10.02;80.43;100939.88;5068610;28;20028;-75
2024/01/28 08:46:59;;;;;;;12.70;6.53;;;;;;;10.06;80.08;100940.78;5066360;28;20654;-75
2024/01/28 08:49:24;;;;;;;15.43;7.43;;;;;;;10.09;80.42;100945.19;5069299;28;20033;-77
2024/01/28 08:51:50;;;;;;;13.67;7.03;;;;;;;10.14;80.09;100939.13;5072513;28;20046;-76
2024/01/28 08:54:15;;;;;;;12.53;6.13;;;;;;;10.15;80.30;100940.88;5072179;28;20032;-78
2024/01/28 08:56:41;;;;;;;11.43;5.67;;;;;;;10.14;80.21;100949.66;5069905;28;20107;-77
2024/01/28 08:59:06;;;;;;;13.73;6.00;;;;;;;10.12;80.42;100932.94;5066508;28;20278;-76
2024/01/28 09:01:32;;;;;;;11.70;6.70;;;;;;;10.18;80.51;100945.25;5063836;28;20079;-77
2024/01/28 09:03:57;;;;;;;11.87;6.30;;;;;;;10.20;80.13;100940.91;5060818;28;20040;-77
2024/01/28 09:06:23;;;;;;;12.68;6.65;;;;;;;10.24;80.78;100931.28;5070332;28;20542;-75
2024/01/28 09:08:48;;;;;;;11.40;5.57;;;;;;;10.29;79.89;100950.63;5069598;28;20048;-77
2024/01/28 09:11:13;;;;;;;12.97;5.90;;;;;;;10.30;80.19;100940.13;5064339;28;20025;-80
2024/01/28 09:13:39;;;;;;;13.90;6.50;;;;;;;10.37;80.09;100953.31;5061633;28;20024;-75
2024/01/28 09:16:04;;;;;;;14.80;6.73;;;;;;;10.38;79.41;100941.91;5047229;28;20027;-77
2024/01/28 09:18:30;;;;;;;12.67;6.70;;;;;;;10.44;79.53;100931.47;5071355;28;20313;-77
2024/01/28 09:20:55;;;;;;;15.13;7.80;;;;;;;10.50;79.11;100947.31;5062759;28;20489;-74
2024/01/28 09:23:21;;;;;;;12.30;6.20;;;;;;;10.54;79.07;100951.75;5058519;28;20108;-75
2024/01/28 09:25:46;;;;;;;14.38;6.82;;;;;;;10.58;79.57;100944.72;5072604;28;20024;-77
2024/01/28 09:28:11;;;;;;;14.93;7.57;;;;;;;10.61;79.33;100945.63;5070599;28;20031;-74
2024/01/28 09:30:39;;;;;;;17.50;8.13;;;;;;;10.66;79.23;100953.56;5071366;28;20035;-74
2024/01/28 09:33:05;;;;;;;14.63;7.00;;;;;;;10.72;78.80;100939.53;5064391;28;20082;-75
2024/01/28 09:35:31;;;;;;;13.73;6.57;;;;;;;10.80;78.83;100951.03;5064375;28;20029;-76
2024/01/28 09:37:57;;;;;;;15.65;6.50;;;;;;;10.83;78.68;100951.03;5064853;28;20029;-76
2024/01/28 09:40:22;;;;;;;16.30;7.95;;;;;;;10.84;78.48;100952.81;5069395;28;20082;-78
2024/01/28 09:43:30;;;;;;;10.53;5.43;;;;;;;10.86;78.82;100961.59;5070391;28;20032;-78
2024/01/28 09:45:56;;;;;;;11.07;6.43;;;;;;;10.91;78.65;100954.59;4965700;28;20038;-83
2024/01/28 09:48:22;;;;;;;13.93;7.00;;;;;;;10.92;78.72;100947.59;5055522;28;20107;-77
2024/01/28 09:50:47;;;;;;;12.77;5.90;;;;;;;10.89;79.16;100956.34;5072011;28;20119;-76
2024/01/28 09:53:13;;;;;;;9.57;5.00;;;;;;;10.88;79.08;100965.13;5069655;28;20035;-77
2024/01/28 09:55:42;;;;;;;9.75;5.07;;;;;;;10.88;79.14;100964.25;5057603;28;20074;-87
2024/01/28 09:58:08;;;;;;;13.23;5.65;;;;;;;10.91;79.24;100956.38;5069506;28;20052;-80
2024/01/28 10:00:34;;;;;;;12.50;7.00;;;;;;;10.98;79.06;100970.47;5070279;28;20036;-77
2024/01/28 10:03:00;;;;;;;12.93;5.87;;;;;;;10.99;78.84;100964.31;5070095;28;20040;-77
2024/01/28 10:05:25;;;;;;;14.13;5.87;;;;;;;10.98;79.11;100954.66;5050611;28;20064;-76
2024/01/28 10:08:01;;;;;;;13.38;5.55;;;;;;;10.94;79.21;100971.28;5070083;28;21410;-77
2024/01/28 10:10:27;;;;;;;10.93;5.20;;;;;;;11.04;79.20;100957.31;5051342;28;20037;-78
2024/01/28 10:12:52;;;;;;;12.13;5.63;;;;;;;11.09;79.05;100963.47;5051919;28;20035;-78
2024/01/28 10:15:20;;;;;;;12.83;4.80;;;;;;;11.18;78.73;100978.47;5067408;28;20029;-75
2024/01/28 10:17:49;;;;;;;11.35;5.30;;;;;;;11.16;78.56;100965.25;5050050;28;20116;-75
2024/01/28 10:20:19;;;;;;;12.40;4.70;;;;;;;11.20;78.97;100969.66;5065091;28;20460;-74
2024/01/28 10:22:44;;;;;;;11.07;5.28;;;;;;;11.14;79.17;100945.91;5069495;28;20032;-74
2024/01/28 10:25:11;;;;;;;13.07;5.88;;;;;;;11.22;78.86;100953.00;5073766;28;20025;-78
2024/01/28 10:27:36;;;;;;;11.67;5.10;;;;;;;11.16;78.75;100962.63;5071282;28;20028;-84
2024/01/28 10:30:03;;;;;;;11.20;6.00;;;;;;;11.20;78.72;100948.56;5071666;28;20067;-91
2024/01/28 10:32:29;;;;;;;10.83;5.10;;;;;;;11.24;79.03;100948.63;5071966;28;20034;-86
2024/01/28 10:34:54;;;;;;;13.07;5.97;;;;;;;11.24;78.66;100974.97;5065373;28;20029;-80
2024/01/28 10:37:21;;;;;;;15.30;6.20;;;;;;;11.30;78.66;100956.53;5059691;28;20673;-77
2024/01/28 10:39:48;;;;;;;10.73;5.32;;;;;;;11.31;78.72;100996.09;5071050;28;20027;-86
2024/01/28 10:42:19;;;;;;;14.40;5.87;;;;;;;11.31;78.85;100969.72;5071291;28;20025;-83
2024/01/28 10:44:47;;;;;;;11.50;4.88;;;;;;;11.36;78.54;100974.16;5070355;28;20111;-87
2024/01/28 10:47:16;;;;;;;10.57;5.40;;;;;;;11.37;78.41;100973.28;5071247;28;20054;-85
2024/01/28 10:49:43;;;;;;;11.50;4.70;;;;;;;11.37;78.11;100978.56;5058292;28;20033;-82
2024/01/28 10:52:09;;;;;;;10.43;5.03;;;;;;;11.35;78.56;100986.44;5050762;28;20040;-84
2024/01/28 10:54:39;;;;;;;12.57;5.53;;;;;;;11.38;78.11;100975.91;5032889;28;20112;-85
2024/01/28 10:57:05;;;;;;;13.05;4.60;;;;;;;11.35;78.37;100975.91;5051004;28;20117;-79
2024/01/28 10:59:37;;;;;;;12.80;5.75;;;;;;;11.42;78.71;100969.75;5067785;28;20056;-89
2024/01/28 11:02:04;;;;;;;11.38;6.32;;;;;;;11.51;78.06;100954.88;5069342;28;20572;-86
2024/01/28 11:04:32;;;;;;;13.18;5.47;;;;;;;11.49;77.94;100953.09;5069601;28;20121;-82
2024/01/28 11:06:58;;;;;;;11.40;5.83;;;;;;;11.55;78.04;100990.91;5073452;28;20107;-78
2024/01/28 11:09:23;;;;;;;10.50;4.82;;;;;;;11.49;77.82;100955.75;5073360;28;20107;-75
2024/01/28 11:11:49;;;;;;;11.30;4.90;;;;;;;11.53;77.56;100979.50;5070289;28;20024;-75
2024/01/28 11:14:14;;;;;;;8.97;4.70;;;;;;;11.56;77.76;100958.41;5073854;28;20031;-89
2024/01/28 11:16:40;;;;;;;15.35;4.80;;;;;;;11.60;77.63;100968.97;5090452;28;20035;-80
2024/01/28 11:19:07;;;;;;;10.60;4.87;;;;;;;11.59;77.74;100964.56;5078407;28;20040;-80
2024/01/28 11:21:38;;;;;;;10.90;4.45;;;;;;;11.63;77.38;100976.00;5067715;28;20115;-75
2024/01/28 11:24:10;;;;;;;9.77;4.55;;;;;;;11.70;76.67;100971.63;5067993;28;20558;-75